• Join FlightAware (Why Join?)
  • Login
  • US Flag 
10:03PM EST


 

Airport Tracker/Info


-or-


 

Live Flight TrackerFlight Track Log ✈ UAL252 ✈ 01-Aug-2013 ✈ KORD - KBWI

Flight Track Log - Related Links

Times and Time Zones

All times are in EDT time to prevent confusion due to time zone crossing. See the UAL252 flight status page for this flight to view local times or setup timezone preferences in your user account.

Time Position Orientation Groundspeed Altitude Reporting Facility
EDT Latitude Longitude Course Direction KTS MPH feet Rate Location/Type
03:58PM 41.9500 -87.9000 90° East 153 176 1,500  Level Chicago TRACON
03:59PM 41.9000 -87.8833 166° South 178 205 3,500 1,620 Climbing Chicago TRACON
03:59PM 41.8833 -87.8333 114° Southeast 182 209 4,600 1,080 Climbing Chicago TRACON
04:00PM 41.9570 -87.4432 97° East  Level FlightAware Approximate
04:00PM 41.8500 -87.8081 151° Southeast 220 253 5,200  Level Chicago Center
04:01PM 41.9443 -87.2916 96° East  Level FlightAware Approximate
04:01PM 41.8222 -87.7267 115° Southeast 264 304 7,100  Level Chicago Center
04:02PM 41.9333 -87.1399 90° East  Level FlightAware Approximate
04:02PM 41.8369 -87.6197 79° East 292 336 10,200  Level Chicago Center
04:03PM 41.9333 -86.9874 90° East  Level FlightAware Approximate
04:03PM 41.8600 -87.5053 75° East 315 362 13,100  Level Chicago Center
04:04PM 41.8839 -87.3789 76° East 360 414 14,600 1,500 Climbing Chicago Center
04:05PM 41.9119 -87.2325 76° East 405 466 16,300 1,740 Climbing Chicago Center
04:07PM 41.9333 -87.0129 90° East  Level FlightAware Approximate
04:07PM 41.9497 -86.8706 90° East 469 540 20,000  Level Chicago Center
04:08PM 41.9517 -86.6922 89° East 482 555 21,400 1,380 Climbing Chicago Center
04:09PM 41.9283 -86.4997 99° East 514 592 22,900 1,260 Climbing Chicago Center
04:10PM 41.9006 -86.3108 101° East 516 594 24,100 1,140 Climbing Chicago Center
04:11PM 41.8722 -86.1158 101° East 527 606 25,300 1,080 Climbing Chicago Center
04:12PM 41.8364 -85.8792 101° East 537 618 26,400 960 Climbing Chicago Center
04:13PM 41.8072 -85.6789 101° East 543 625 27,300 1,200 Climbing Chicago Center
04:15PM 41.7761 -85.4764 102° East 544 626 29,000 1,740 Climbing Chicago Center
04:16PM 41.7239 -85.1269 101° East 543 625 32,400 1,740 Climbing Cleveland Center
04:17PM 41.6936 -84.9411 102° East 512 589 34,000 1,260 Climbing Cleveland Center
04:18PM 41.6694 -84.7533 100° East 512 589 35,000 900 Climbing Cleveland Center
04:19PM 41.6592 -84.5664 94° East 512 589 35,800 960 Climbing Cleveland Center
04:20PM 41.6469 -84.3764 95° East 506 582 37,000 720 Climbing Cleveland Center
04:21PM 41.6247 -84.2647 105° East 510 587 37,000 120 Level Chicago Center
04:22PM 41.5747 -84.0844 110° East 515 593 37,200 480 Climbing Chicago Center
04:23PM 41.5253 -83.9050 110° East 517 595 38,000 360 Climbing Chicago Center
04:24PM 41.4775 -83.7269 110° East 513 590 38,000 240 Level Chicago Center
04:25PM 41.4003 -83.4650 111° Southeast 517 595 38,600 420 Climbing Cleveland Center
04:26PM 41.3525 -83.2914 110° East 512 589 39,000 180 Climbing Cleveland Center
04:27PM 41.3103 -83.1347 110° East 507 583 39,000  Level Cleveland Center
04:28PM 41.2619 -82.9614 110° East 501 577 39,000  Level Cleveland Center
04:29PM 41.2133 -82.7886 110° East 501 577 39,000  Level Cleveland Center
04:30PM 41.2003 -82.5922 95° East 485 558 39,000  Level Cleveland Center
04:31PM 41.1969 -82.4044 91° East 490 564 39,000  Level Cleveland Center
04:32PM 41.1956 -82.2250 91° East 493 567 39,000  Level Cleveland Center
04:33PM 41.1708 -82.0617 101° East 493 567 39,000  Level Cleveland Center
04:34PM 41.0619 -81.9325 138° Southeast 459 528 39,000  Level Cleveland Center
04:35PM 40.9589 -81.8231 141° Southeast 459 528 39,000  Level Cleveland Center
04:36PM 40.8558 -81.7142 141° Southeast 473 544 39,000  Level Cleveland Center
04:37PM 40.7567 -81.6028 140° Southeast 473 544 39,000  Level Cleveland Center
04:38PM 40.6556 -81.4944 141° Southeast 467 537 39,000  Level Cleveland Center
04:39PM 40.5583 -81.3867 140° Southeast 467 537 39,000  Level Cleveland Center
04:40PM 40.4547 -81.2761 141° Southeast 467 537 39,000  Level Cleveland Center
04:41PM 40.3428 -81.2014 153° Southeast 448 516 39,000  Level Cleveland Center
04:42PM 40.2219 -81.1703 169° South 438 504 39,000  Level Cleveland Center
04:43PM 40.1033 -81.1394 169° South 438 504 39,000 -300 Level Cleveland Center
04:44PM 39.9847 -81.1114 170° South 438 504 38,400 -960 Descending Cleveland Center
04:45PM 39.8744 -81.0536 158° South 423 487 37,100 -720 Descending Cleveland Center
04:46PM 39.8083 -80.9156 122° Southeast 414 476 37,000 -60 Descending Cleveland Center
04:47PM 39.8128 -80.7506 88° East 399 459 37,000  Level Cleveland Center
04:48PM 39.8253 -80.5886 84° East 416 479 37,000  Level Cleveland Center
04:49PM 39.8378 -80.4181 84° East 437 503 37,000  Level Cleveland Center
04:50PM 39.8500 -80.2533 84° East 455 524 37,000 -60 Level Cleveland Center
04:51PM 39.8578 -80.0881 86° East 460 529 36,900 -840 Descending Cleveland Center
04:52PM 39.8400 -79.9208 98° East 460 529 35,400 -1,500 Descending Cleveland Center
04:53PM 39.8058 -79.7589 105° East 460 529 34,000 -1,200 Descending Cleveland Center
04:54PM 39.7711 -79.6000 106° East 460 529 33,000 -4,500 Descending Cleveland Center
04:55PM 39.7364 -79.4411 106° East 460 529 25,000 -2,940 Descending Cleveland Center
04:56PM 39.7008 -79.2867 107° East 455 524 27,000 480 Climbing Washington Center
04:57PM 39.6786 -79.1236 100° East 450 518 26,000 -540 Descending Washington Center
04:58PM 39.6708 -78.9614 94° East 450 518 26,000 -60 Level Washington Center
04:59PM 39.6256 -78.7894 109° East 448 516 25,900 -1,620 Descending Washington Center
05:00PM 39.5853 -78.6478 110° East 442 509 22,900 -3,180 Descending Washington Center
05:01PM 39.5569 -78.5308 107° East 430 495 19,600 -3,300 Descending Washington Center
05:02PM 39.5186 -78.3947 110° East 417 480 16,300 -2,340 Descending Washington Center
05:03PM 39.4803 -78.2481 109° East 402 463 15,000 -720 Descending Washington Center
05:04PM 39.4497 -78.1153 107° East 391 450 14,900 -960 Descending Washington Center
05:05PM 39.4483 -77.9836 91° East 372 428 13,100 -1,800 Descending Washington Center
05:06PM 39.4486 -77.8544 90° East 364 419 11,300 -1,080 Descending Washington Center
05:07PM 39.4469 -77.7256 91° East 364 419 11,000 -180 Descending Washington Center
05:08PM 39.4469 -77.5992 90° East 359 413 11,000  Level Washington Center
05:09PM 39.4447 -77.4728 91° East 359 413 11,000  Level Washington Center
05:10PM 39.4500 -77.3500 87° East 326 375 11,000 -300 Level Potomac TRACON
05:11PM 39.4667 -77.2333 79° East 308 354 10,500 -1,500 Descending Potomac TRACON
05:12PM 39.4500 -77.1333 102° East 305 351 8,000 -2,220 Descending Potomac TRACON
05:13PM 39.4500 -77.0167 90° East 298 343 5,900 -1,860 Descending Potomac TRACON
05:14PM 39.4000 -76.9333 128° Southeast 296 341 4,100 -960 Descending Potomac TRACON
05:15PM 39.3167 -76.9333 180° South 274 315 4,000 -300 Descending Potomac TRACON
05:16PM 39.2500 -76.9333 180° South 238 274 3,600 -540 Descending Potomac TRACON
05:17PM 39.2000 -76.8833 142° Southeast 219 252 3,000 -780 Descending Potomac TRACON
05:18PM 39.1833 -76.8333 113° Southeast 191 220 2,200 -900 Descending Potomac TRACON
05:19PM 39.1833 -76.7500 90° East 183 211 1,200 -900 Descending Potomac TRACON
05:20PM 39.1833 -76.7000 90° East 144 166 400 -900 Descending Potomac TRACON
05:22PM 39.1667 -76.6667 142° Southeast  Level FlightAware Approximate
05:29PM 39.1754 -76.6683 142° Southeast  Level Estimated